Time;durP1;ratioP1;P1;durP2;ratioP2;P2;SDS_P1;SDS_P2;PMS_P1;PMS_P2;Temp;Humidity;BMP_temperature;BMP_pressure;BME280_temperature;BME280_humidity;BME280_pressure;Samples;Min_cycle;Max_cycle;Signal;HPM_P1;HPM_P2
2024/04/21 00:01:51;;;;;;;60.55;7.13;;;;;;;;;;5351225;26;20295;-68
2024/04/21 00:04:17;;;;;;;60.10;7.30;;;;;;;;;;5355176;26;20245;-68
2024/04/21 00:06:46;;;;;;;60.28;7.55;;;;;;;;;;5354576;26;20253;-68
2024/04/21 00:09:12;;;;;;;59.78;6.78;;;;;;;;;;5354391;26;20238;-68
2024/04/21 00:11:41;;;;;;;60.50;7.00;;;;;;;;;;5354603;26;20762;-68
2024/04/21 00:14:07;;;;;;;61.40;7.80;;;;;;;;;;5354091;26;20230;-67
2024/04/21 00:16:36;;;;;;;60.40;6.67;;;;;;;;;;5354340;26;20815;-67
2024/04/21 00:19:05;;;;;;;63.63;8.07;;;;;;;;;;5354443;26;21138;-67
2024/04/21 00:21:34;;;;;;;59.40;6.50;;;;;;;;;;5354962;26;20535;-68
2024/04/21 00:24:00;;;;;;;60.57;6.70;;;;;;;;;;5354518;26;20578;-68
2024/04/21 00:26:29;;;;;;;60.13;6.40;;;;;;;;;;5351060;26;20471;-68
2024/04/21 00:28:55;;;;;;;59.92;6.50;;;;;;;;;;5352043;26;20245;-68
2024/04/21 00:31:24;;;;;;;59.53;6.20;;;;;;;;;;5353952;26;20241;-68
2024/04/21 00:33:50;;;;;;;62.10;9.13;;;;;;;;;;5354579;26;20979;-68
2024/04/21 00:36:21;;;;;;;59.83;6.20;;;;;;;;;;5353661;26;20535;-68
2024/04/21 00:38:48;;;;;;;59.57;6.03;;;;;;;;;;5352825;26;20521;-68
2024/04/21 00:41:17;;;;;;;60.07;6.20;;;;;;;;;;5354005;26;20488;-67
2024/04/21 00:43:43;;;;;;;58.70;6.05;;;;;;;;;;5354701;26;20479;-68
2024/04/21 00:46:12;;;;;;;59.60;6.43;;;;;;;;;;5353626;26;20245;-68
2024/04/21 00:48:38;;;;;;;59.38;6.72;;;;;;;;;;5353223;26;20479;-68
2024/04/21 00:51:08;;;;;;;60.85;6.45;;;;;;;;;;5352947;26;20245;-68
2024/04/21 00:53:36;;;;;;;60.17;6.07;;;;;;;;;;5354066;26;20244;-68
2024/04/21 00:56:06;;;;;;;59.07;5.80;;;;;;;;;;5353875;26;20480;-68
2024/04/21 00:58:32;;;;;;;58.53;5.70;;;;;;;;;;5353178;26;20487;-68
2024/04/21 01:01:02;;;;;;;59.53;5.60;;;;;;;;;;5353475;26;20540;-68
2024/04/21 01:03:28;;;;;;;58.85;6.40;;;;;;;;;;5353924;26;20472;-67
2024/04/21 01:05:57;;;;;;;59.67;7.20;;;;;;;;;;5354494;26;20408;-67
2024/04/21 01:08:23;;;;;;;59.20;6.07;;;;;;;;;;5353517;26;20532;-67
2024/04/21 01:10:55;;;;;;;58.80;5.90;;;;;;;;;;5354296;26;20488;-68
2024/04/21 01:13:21;;;;;;;59.40;5.90;;;;;;;;;;5354507;26;20595;-67
2024/04/21 01:15:52;;;;;;;59.17;5.80;;;;;;;;;;5354341;26;20540;-68
2024/04/21 01:18:18;;;;;;;58.97;6.20;;;;;;;;;;5354362;26;20536;-68
2024/04/21 01:20:47;;;;;;;58.83;5.60;;;;;;;;;;5354016;26;20571;-67
2024/04/21 01:23:18;;;;;;;58.20;5.60;;;;;;;;;;5354249;26;20587;-67
2024/04/21 01:25:47;;;;;;;59.10;6.13;;;;;;;;;;5353383;26;20520;-68
2024/04/21 01:28:13;;;;;;;58.77;5.60;;;;;;;;;;5353622;26;20468;-67
2024/04/21 01:30:42;;;;;;;58.97;6.20;;;;;;;;;;5353430;26;20487;-68
2024/04/21 01:33:08;;;;;;;58.07;5.27;;;;;;;;;;5340016;26;20567;-67
2024/04/21 01:35:38;;;;;;;56.63;3.70;;;;;;;;;;5353450;26;20547;-67
2024/04/21 01:38:04;;;;;;;57.07;4.00;;;;;;;;;;5352071;26;20619;-68
2024/04/21 01:40:35;;;;;;;57.27;4.03;;;;;;;;;;5353191;26;20476;-68
2024/04/21 01:43:01;;;;;;;58.60;3.70;;;;;;;;;;5353537;26;20479;-68
2024/04/21 01:45:30;;;;;;;56.30;3.70;;;;;;;;;;5351797;26;20483;-68
2024/04/21 01:47:56;;;;;;;56.50;3.50;;;;;;;;;;5354025;26;20514;-68
2024/04/21 01:50:26;;;;;;;56.70;3.50;;;;;;;;;;5357494;26;20534;-68
2024/04/21 01:52:52;;;;;;;56.40;3.10;;;;;;;;;;5357195;26;20475;-68
2024/04/21 01:55:21;;;;;;;56.90;3.22;;;;;;;;;;5357184;26;20483;-68
2024/04/21 01:57:49;;;;;;;57.70;3.63;;;;;;;;;;5356619;26;20305;-68
2024/04/21 02:00:18;;;;;;;56.30;3.60;;;;;;;;;;5357450;26;20528;-68
2024/04/21 02:02:44;;;;;;;57.50;2.90;;;;;;;;;;5356498;26;20467;-67
2024/04/21 02:05:14;;;;;;;56.47;3.40;;;;;;;;;;5356848;26;20524;-68
2024/04/21 02:07:40;;;;;;;56.20;3.40;;;;;;;;;;5355929;26;20472;-68
2024/04/21 02:10:09;;;;;;;56.50;4.13;;;;;;;;;;5356110;26;20536;-68
2024/04/21 02:12:35;;;;;;;56.50;3.60;;;;;;;;;;5355535;26;20555;-68
2024/04/21 02:15:07;;;;;;;56.10;3.27;;;;;;;;;;5355366;26;20487;-68
2024/04/21 02:17:33;;;;;;;55.60;2.60;;;;;;;;;;5356149;26;20491;-68
2024/04/21 02:20:02;;;;;;;56.10;3.30;;;;;;;;;;5355916;26;20475;-68
2024/04/21 02:22:28;;;;;;;56.30;3.40;;;;;;;;;;5356261;26;20599;-68
2024/04/21 02:24:57;;;;;;;56.30;3.10;;;;;;;;;;5357070;26;20464;-68
2024/04/21 02:27:23;;;;;;;56.17;2.53;;;;;;;;;;5355535;26;20491;-67
2024/04/21 02:29:52;;;;;;;55.80;2.90;;;;;;;;;;5355737;26;20471;-67
2024/04/21 02:32:20;;;;;;;55.67;2.67;;;;;;;;;;5355706;26;20487;-67
2024/04/21 02:34:49;;;;;;;57.00;3.03;;;;;;;;;;5357310;26;20534;-67
2024/04/21 02:37:15;;;;;;;56.60;3.40;;;;;;;;;;5357213;26;20601;-67
2024/04/21 02:39:44;;;;;;;57.37;3.20;;;;;;;;;;5358711;26;20483;-67
2024/04/21 02:42:10;;;;;;;59.50;4.10;;;;;;;;;;5358538;26;20571;-67
2024/04/21 02:44:39;;;;;;;58.07;4.53;;;;;;;;;;5357112;26;20487;-66
2024/04/21 02:47:05;;;;;;;57.70;4.50;;;;;;;;;;5358225;26;20555;-67
2024/04/21 02:49:37;;;;;;;58.70;4.47;;;;;;;;;;5358981;26;20813;-67
2024/04/21 02:52:03;;;;;;;56.97;3.90;;;;;;;;;;5358678;26;20528;-67
2024/04/21 02:54:32;;;;;;;56.77;4.10;;;;;;;;;;5358555;26;20559;-67
2024/04/21 02:56:58;;;;;;;57.67;3.60;;;;;;;;;;5357906;26;20498;-68
2024/04/21 02:59:26;;;;;;;57.17;4.07;;;;;;;;;;5358704;26;20354;-65
2024/04/21 03:01:52;;;;;;;58.28;4.63;;;;;;;;;;5355927;26;20372;-66
2024/04/21 03:04:21;;;;;;;58.90;4.72;;;;;;;;;;5353004;26;20704;-67
2024/04/21 03:06:50;;;;;;;57.30;4.55;;;;;;;;;;5350400;26;20673;-67
2024/04/21 03:09:19;;;;;;;58.40;5.28;;;;;;;;;;5350413;26;20280;-67
2024/04/21 03:11:46;;;;;;;57.28;4.55;;;;;;;;;;5351102;26;20245;-66
2024/04/21 03:14:15;;;;;;;58.47;5.63;;;;;;;;;;5351381;26;20679;-67
2024/04/21 03:16:42;;;;;;;60.80;5.60;;;;;;;;;;5350942;26;20584;-67
2024/04/21 03:19:10;;;;;;;58.83;5.75;;;;;;;;;;5351043;26;20241;-68
2024/04/21 03:21:36;;;;;;;59.78;5.18;;;;;;;;;;5350820;26;20245;-67
2024/04/21 03:24:08;;;;;;;58.05;5.65;;;;;;;;;;5350862;26;20287;-67
2024/04/21 03:26:34;;;;;;;58.58;5.60;;;;;;;;;;5349947;26;20248;-67
2024/04/21 03:29:03;;;;;;;60.15;5.70;;;;;;;;;;5351268;26;20294;-68
2024/04/21 03:31:29;;;;;;;57.67;5.10;;;;;;;;;;5351316;26;20253;-68
2024/04/21 03:33:58;;;;;;;58.40;4.85;;;;;;;;;;5352547;26;20523;-68
2024/04/21 03:36:24;;;;;;;59.10;5.55;;;;;;;;;;5353057;26;20249;-67
2024/04/21 03:38:53;;;;;;;58.15;5.45;;;;;;;;;;5353413;26;20244;-68
2024/04/21 03:41:24;;;;;;;58.08;5.25;;;;;;;;;;5353983;26;20598;-68
2024/04/21 03:43:53;;;;;;;59.13;4.80;;;;;;;;;;5353528;26;20331;-68
2024/04/21 03:46:22;;;;;;;57.20;4.90;;;;;;;;;;5354422;26;20253;-68
2024/04/21 03:48:48;;;;;;;59.05;5.55;;;;;;;;;;5353397;26;20249;-67
2024/04/21 03:51:17;;;;;;;57.97;5.22;;;;;;;;;;5353465;26;20275;-69
2024/04/21 03:53:43;;;;;;;58.07;5.63;;;;;;;;;;5355791;26;20234;-68
2024/04/21 03:56:11;;;;;;;57.78;5.63;;;;;;;;;;5354100;26;20544;-67
2024/04/21 03:58:40;;;;;;;58.80;5.70;;;;;;;;;;5354587;26;20253;-68
2024/04/21 04:01:09;;;;;;;58.28;5.55;;;;;;;;;;5354507;26;20476;-68
2024/04/21 04:03:40;;;;;;;58.60;5.97;;;;;;;;;;5354675;26;20248;-68
2024/04/21 04:06:09;;;;;;;58.57;6.23;;;;;;;;;;5354567;26;20241;-68
2024/04/21 04:08:36;;;;;;;58.53;5.82;;;;;;;;;;5354418;26;20484;-68
2024/04/21 04:11:04;;;;;;;58.40;6.07;;;;;;;;;;5352258;26;20237;-66
2024/04/21 04:13:31;;;;;;;59.22;5.90;;;;;;;;;;5353491;26;20528;-67
2024/04/21 04:16:02;;;;;;;61.30;5.57;;;;;;;;;;5352834;26;20245;-67
2024/04/21 04:18:28;;;;;;;59.60;6.10;;;;;;;;;;5351381;26;20898;-67
2024/04/21 04:20:57;;;;;;;58.50;6.35;;;;;;;;;;5352695;26;20288;-67
2024/04/21 04:23:23;;;;;;;57.92;5.60;;;;;;;;;;5352350;26;20237;-67
2024/04/21 04:25:52;;;;;;;57.83;5.40;;;;;;;;;;5350908;26;20293;-67
2024/04/21 04:28:18;;;;;;;57.83;5.20;;;;;;;;;;5350255;26;20354;-66
2024/04/21 04:30:47;;;;;;;62.35;5.47;;;;;;;;;;5350911;26;20245;-67
2024/04/21 04:33:16;;;;;;;59.72;5.15;;;;;;;;;;5350509;26;20720;-66
2024/04/21 04:35:45;;;;;;;57.55;5.20;;;;;;;;;;5351008;26;20280;-67
2024/04/21 04:38:11;;;;;;;58.05;5.30;;;;;;;;;;5349238;26;20265;-67
2024/04/21 04:40:40;;;;;;;59.58;5.40;;;;;;;;;;5349740;26;20245;-67
2024/04/21 04:43:06;;;;;;;58.00;5.63;;;;;;;;;;5349427;26;20237;-67
2024/04/21 04:45:35;;;;;;;57.72;5.22;;;;;;;;;;5349432;26;20288;-68
2024/04/21 04:48:01;;;;;;;57.80;5.45;;;;;;;;;;5349581;26;20288;-67
2024/04/21 04:50:32;;;;;;;58.38;4.70;;;;;;;;;;5348815;26;20274;-67
2024/04/21 04:52:58;;;;;;;58.10;5.45;;;;;;;;;;5348912;26;20583;-68
2024/04/21 04:55:27;;;;;;;57.50;4.80;;;;;;;;;;5348760;26;20618;-67
2024/04/21 04:57:53;;;;;;;57.40;5.00;;;;;;;;;;5348105;26;20355;-67
2024/04/21 05:00:22;;;;;;;58.22;5.35;;;;;;;;;;5349027;26;20282;-68
2024/04/21 05:02:48;;;;;;;57.50;4.35;;;;;;;;;;5349414;26;20233;-68
2024/04/21 05:05:17;;;;;;;57.20;4.55;;;;;;;;;;5349457;26;20244;-67
2024/04/21 05:07:46;;;;;;;57.15;4.10;;;;;;;;;;5348537;26;20300;-68
2024/04/21 05:10:15;;;;;;;57.27;4.00;;;;;;;;;;5350323;26;20284;-67
2024/04/21 05:12:41;;;;;;;57.50;4.32;;;;;;;;;;5349315;26;20532;-67
2024/04/21 05:15:10;;;;;;;57.25;4.45;;;;;;;;;;5350113;26;20240;-67
2024/04/21 05:17:36;;;;;;;56.30;3.50;;;;;;;;;;5349502;26;20253;-68
2024/04/21 05:20:05;;;;;;;56.50;3.63;;;;;;;;;;5348451;26;20309;-67
2024/04/21 05:22:32;;;;;;;56.58;3.25;;;;;;;;;;5350009;26;20257;-68
2024/04/21 05:25:03;;;;;;;57.42;4.00;;;;;;;;;;5350693;26;20304;-68
2024/04/21 05:27:29;;;;;;;56.67;3.90;;;;;;;;;;5349778;26;20241;-68
2024/04/21 05:29:58;;;;;;;57.03;3.80;;;;;;;;;;5350149;26;20291;-68
2024/04/21 05:32:24;;;;;;;57.20;4.07;;;;;;;;;;5349536;26;20245;-68
2024/04/21 05:34:53;;;;;;;58.35;4.15;;;;;;;;;;5348907;26;20241;-68
2024/04/21 05:37:19;;;;;;;56.83;3.90;;;;;;;;;;5349040;26;20635;-67
2024/04/21 05:39:48;;;;;;;58.75;4.50;;;;;;;;;;5349154;26;20284;-67
2024/04/21 05:42:17;;;;;;;59.15;4.45;;;;;;;;;;5349034;26;20351;-68
2024/04/21 05:44:45;;;;;;;56.80;4.23;;;;;;;;;;5349470;26;20245;-68
2024/04/21 05:47:12;;;;;;;57.28;4.22;;;;;;;;;;5348449;26;20540;-68
2024/04/21 05:49:40;;;;;;;62.47;4.93;;;;;;;;;;5348879;26;20725;-68
2024/04/21 05:52:06;;;;;;;66.00;4.90;;;;;;;;;;5348640;26;20347;-68
2024/04/21 05:54:35;;;;;;;57.30;4.80;;;;;;;;;;5348240;26;20261;-68
2024/04/21 05:57:01;;;;;;;58.05;4.22;;;;;;;;;;5348961;26;20628;-67
2024/04/21 05:59:33;;;;;;;57.00;3.95;;;;;;;;;;5350158;26;20804;-67
2024/04/21 06:01:59;;;;;;;60.17;4.22;;;;;;;;;;5348285;26;20252;-68
2024/04/21 06:04:30;;;;;;;58.97;5.23;;;;;;;;;;5349424;26;20245;-67
2024/04/21 06:06:56;;;;;;;57.90;3.35;;;;;;;;;;5348776;26;20916;-68
2024/04/21 06:09:26;;;;;;;57.37;4.50;;;;;;;;;;5350330;26;20600;-68
2024/04/21 06:11:52;;;;;;;57.30;4.25;;;;;;;;;;5349711;26;20471;-68
2024/04/21 06:14:21;;;;;;;57.65;4.63;;;;;;;;;;5350368;26;20245;-68
2024/04/21 06:16:50;;;;;;;57.65;4.18;;;;;;;;;;5350941;26;20248;-68
2024/04/21 06:19:19;;;;;;;57.67;4.57;;;;;;;;;;5351404;26;20283;-68
2024/04/21 06:21:45;;;;;;;56.70;4.18;;;;;;;;;;5350849;26;20580;-68
2024/04/21 06:24:14;;;;;;;57.50;4.43;;;;;;;;;;5348919;26;20276;-67
2024/04/21 06:26:41;;;;;;;59.72;4.70;;;;;;;;;;5349239;26;20616;-67
2024/04/21 06:29:09;;;;;;;57.13;4.00;;;;;;;;;;5349143;26;20350;-68
2024/04/21 06:31:36;;;;;;;58.50;4.43;;;;;;;;;;5351521;26;20476;-67
2024/04/21 06:34:07;;;;;;;58.87;4.23;;;;;;;;;;5353356;26;20566;-68
2024/04/21 06:36:33;;;;;;;57.80;4.10;;;;;;;;;;5354604;26;20483;-66
2024/04/21 06:39:02;;;;;;;59.75;3.90;;;;;;;;;;5355056;26;20282;-68
2024/04/21 06:41:28;;;;;;;64.83;4.17;;;;;;;;;;5355792;26;20288;-67
2024/04/21 06:43:57;;;;;;;56.85;3.40;;;;;;;;;;5343022;26;20463;-68
2024/04/21 06:46:23;;;;;;;61.30;4.37;;;;;;;;;;5339193;26;20249;-69
2024/04/21 06:48:52;;;;;;;59.55;3.50;;;;;;;;;;5354854;26;20476;-68
2024/04/21 06:51:20;;;;;;;57.67;3.90;;;;;;;;;;5356566;26;20260;-68
2024/04/21 06:53:49;;;;;;;59.87;5.07;;;;;;;;;;5357405;26;20536;-68
2024/04/21 06:56:15;;;;;;;57.80;4.50;;;;;;;;;;5356631;26;20556;-68
2024/04/21 06:58:44;;;;;;;57.83;3.90;;;;;;;;;;5358336;26;20284;-68
2024/04/21 07:01:11;;;;;;;67.60;4.73;;;;;;;;;;5357904;26;20558;-68
2024/04/21 07:03:39;;;;;;;58.50;4.37;;;;;;;;;;5357245;26;20569;-68
2024/04/21 07:06:05;;;;;;;59.60;4.38;;;;;;;;;;5354840;26;20476;-67
2024/04/21 07:08:37;;;;;;;58.53;3.60;;;;;;;;;;5356796;26;20305;-67
2024/04/21 07:11:05;;;;;;;57.70;3.83;;;;;;;;;;5356249;26;20257;-68
2024/04/21 07:13:34;;;;;;;60.35;4.22;;;;;;;;;;5357086;26;20587;-68
2024/04/21 07:16:00;;;;;;;58.88;3.72;;;;;;;;;;5356761;26;20237;-68
2024/04/21 07:18:29;;;;;;;60.70;4.87;;;;;;;;;;5358105;26;20263;-68
2024/04/21 07:20:55;;;;;;;58.00;4.10;;;;;;;;;;5358189;26;20479;-68
2024/04/21 07:23:23;;;;;;;62.63;4.20;;;;;;;;;;5358613;26;20475;-68
2024/04/21 07:25:52;;;;;;;63.47;4.30;;;;;;;;;;5358026;26;20468;-68
2024/04/21 07:28:21;;;;;;;58.67;4.30;;;;;;;;;;5357870;26;20293;-68
2024/04/21 07:30:47;;;;;;;63.40;5.27;;;;;;;;;;5357469;26;20569;-68
2024/04/21 07:33:16;;;;;;;61.93;4.80;;;;;;;;;;5358229;26;20550;-68
2024/04/21 07:35:43;;;;;;;59.40;4.70;;;;;;;;;;5358205;26;20475;-68
2024/04/21 07:38:12;;;;;;;57.80;3.93;;;;;;;;;;5356776;26;20488;-68
2024/04/21 07:40:41;;;;;;;56.93;3.90;;;;;;;;;;5357232;26;20483;-68
2024/04/21 07:43:11;;;;;;;59.60;3.90;;;;;;;;;;5358462;26;20604;-68
2024/04/21 07:45:40;;;;;;;58.60;3.60;;;;;;;;;;5356816;26;20479;-68
2024/04/21 07:48:06;;;;;;;59.97;3.38;;;;;;;;;;5355878;26;20576;-68
2024/04/21 07:50:36;;;;;;;58.93;4.10;;;;;;;;;;5356444;26;20297;-68
2024/04/21 07:53:02;;;;;;;58.33;3.50;;;;;;;;;;5356226;26;20471;-68
2024/04/21 07:55:31;;;;;;;63.33;5.00;;;;;;;;;;5355498;26;20899;-67
2024/04/21 07:57:57;;;;;;;58.27;4.37;;;;;;;;;;5354490;26;20526;-67
2024/04/21 08:00:28;;;;;;;62.22;3.97;;;;;;;;;;5354577;26;20468;-67
2024/04/21 08:02:55;;;;;;;61.30;3.40;;;;;;;;;;5354612;26;20233;-68
2024/04/21 08:05:23;;;;;;;57.20;3.53;;;;;;;;;;5353511;26;20670;-68
2024/04/21 08:07:49;;;;;;;57.17;3.70;;;;;;;;;;5353206;26;20474;-67
2024/04/21 08:10:18;;;;;;;57.53;3.90;;;;;;;;;;5355118;26;20468;-68
2024/04/21 08:12:46;;;;;;;57.90;3.83;;;;;;;;;;5355732;26;20471;-69
2024/04/21 08:15:15;;;;;;;57.83;3.23;;;;;;;;;;5354991;26;20487;-68
2024/04/21 08:17:43;;;;;;;57.47;3.63;;;;;;;;;;5356383;26;20535;-68
2024/04/21 08:20:12;;;;;;;64.97;5.67;;;;;;;;;;5356157;26;20535;-68
2024/04/21 08:22:38;;;;;;;59.90;6.07;;;;;;;;;;5355279;26;20483;-68
2024/04/21 08:25:07;;;;;;;59.50;4.43;;;;;;;;;;5355293;26;20472;-68
2024/04/21 08:27:33;;;;;;;60.70;5.00;;;;;;;;;;5354706;26;20491;-68
2024/04/21 08:30:02;;;;;;;58.50;4.10;;;;;;;;;;5354192;26;20543;-69
2024/04/21 08:32:29;;;;;;;58.77;4.97;;;;;;;;;;5340014;26;20950;-68
2024/04/21 08:35:01;;;;;;;59.20;4.00;;;;;;;;;;5353134;26;20484;-68
2024/04/21 08:37:27;;;;;;;60.00;3.80;;;;;;;;;;5352936;26;20528;-69
2024/04/21 08:39:55;;;;;;;60.90;3.40;;;;;;;;;;5352247;26;21092;-68
2024/04/21 08:42:22;;;;;;;62.90;4.40;;;;;;;;;;5352604;26;20523;-68
2024/04/21 08:44:52;;;;;;;57.00;4.43;;;;;;;;;;5352004;26;20483;-68
2024/04/21 08:47:18;;;;;;;60.47;4.40;;;;;;;;;;5352144;26;20583;-69
2024/04/21 08:49:47;;;;;;;56.40;3.70;;;;;;;;;;5353498;26;20592;-69
2024/04/21 08:52:17;;;;;;;57.90;4.40;;;;;;;;;;5352423;26;20544;-69
2024/04/21 08:54:47;;;;;;;60.33;3.90;;;;;;;;;;5351913;26;20594;-68
2024/04/21 08:57:14;;;;;;;64.13;3.37;;;;;;;;;;5350513;26;20825;-68
2024/04/21 08:59:44;;;;;;;58.47;3.63;;;;;;;;;;5350853;26;20479;-69
2024/04/21 09:02:11;;;;;;;60.40;3.70;;;;;;;;;;5351066;26;20535;-68
2024/04/21 09:04:42;;;;;;;61.20;4.00;;;;;;;;;;5351476;26;20487;-69
2024/04/21 09:07:08;;;;;;;57.33;3.77;;;;;;;;;;5351916;26;20483;-68
2024/04/21 09:09:40;;;;;;;58.23;3.80;;;;;;;;;;5351291;26;20475;-69
2024/04/21 09:12:07;;;;;;;62.00;3.70;;;;;;;;;;5351344;26;20483;-68
2024/04/21 09:14:43;;;;;;;59.47;3.20;;;;;;;;;;5350765;26;20821;-69
2024/04/21 09:17:09;;;;;;;59.23;3.27;;;;;;;;;;5350709;26;20483;-69
2024/04/21 09:19:38;;;;;;;57.70;3.73;;;;;;;;;;5350816;26;20480;-69
2024/04/21 09:22:05;;;;;;;57.50;3.20;;;;;;;;;;5351251;26;20627;-69
2024/04/21 09:24:34;;;;;;;61.00;3.43;;;;;;;;;;5336978;26;20560;-69
2024/04/21 09:27:02;;;;;;;58.00;3.17;;;;;;;;;;5350765;26;20540;-69
2024/04/21 09:29:31;;;;;;;57.60;2.90;;;;;;;;;;5349876;26;20514;-69
2024/04/21 09:31:57;;;;;;;59.90;3.70;;;;;;;;;;5349747;26;20539;-68
2024/04/21 09:34:26;;;;;;;57.80;3.37;;;;;;;;;;5350416;26;20522;-69
2024/04/21 09:36:55;;;;;;;58.77;3.27;;;;;;;;;;5349171;26;20582;-69
2024/04/21 09:39:23;;;;;;;61.43;3.40;;;;;;;;;;5349734;26;20479;-69
2024/04/21 09:41:51;;;;;;;58.97;3.13;;;;;;;;;;5349930;26;20480;-69
2024/04/21 09:44:23;;;;;;;58.63;2.90;;;;;;;;;;5349167;26;20531;-69
2024/04/21 09:46:50;;;;;;;57.33;2.60;;;;;;;;;;5348643;26;21086;-68
2024/04/21 09:49:19;;;;;;;60.63;2.60;;;;;;;;;;5348711;26;20479;-69
2024/04/21 09:51:46;;;;;;;57.03;3.13;;;;;;;;;;5349435;26;20472;-68
2024/04/21 09:54:19;;;;;;;57.17;3.13;;;;;;;;;;5348574;26;20541;-68
2024/04/21 09:56:48;;;;;;;56.47;2.90;;;;;;;;;;5348660;26;21027;-68
2024/04/21 09:59:18;;;;;;;57.50;2.53;;;;;;;;;;5348298;26;20539;-69
2024/04/21 10:01:49;;;;;;;57.90;2.87;;;;;;;;;;5349203;26;20942;-68
2024/04/21 10:04:21;;;;;;;58.87;3.00;;;;;;;;;;5349413;26;20555;-68
2024/04/21 10:06:48;;;;;;;58.00;2.47;;;;;;;;;;5348538;26;20479;-68
2024/04/21 10:09:18;;;;;;;57.13;2.27;;;;;;;;;;5352462;26;20545;-68
2024/04/21 10:11:45;;;;;;;63.28;3.10;;;;;;;;;;5350204;26;20387;-68
2024/04/21 10:14:14;;;;;;;57.73;5.10;;;;;;;;;;5350394;26;20651;-69
2024/04/21 10:16:42;;;;;;;56.50;2.47;;;;;;;;;;5352654;26;20491;-69
2024/04/21 10:19:13;;;;;;;56.47;2.80;;;;;;;;;;5352564;26;20471;-68
2024/04/21 10:21:40;;;;;;;57.53;3.27;;;;;;;;;;5351950;26;20475;-69
2024/04/21 10:24:09;;;;;;;57.30;2.67;;;;;;;;;;5351682;26;20480;-68
2024/04/21 10:26:35;;;;;;;58.00;2.60;;;;;;;;;;5338138;26;20491;-67
2024/04/21 10:29:11;;;;;;;56.10;2.63;;;;;;;;;;5352004;26;20728;-68
2024/04/21 10:31:37;;;;;;;57.17;2.90;;;;;;;;;;5351844;26;20531;-68
2024/04/21 10:34:09;;;;;;;56.00;2.63;;;;;;;;;;5352476;26;20595;-68
2024/04/21 10:36:44;;;;;;;57.07;2.80;;;;;;;;;;5337917;26;21026;-68
2024/04/21 10:39:13;;;;;;;57.57;2.97;;;;;;;;;;5350122;26;20594;-68
2024/04/21 10:41:43;;;;;;;57.03;3.27;;;;;;;;;;5348879;26;20585;-68
2024/04/21 10:44:13;;;;;;;57.90;3.00;;;;;;;;;;5348651;26;20475;-68
2024/04/21 10:46:39;;;;;;;60.23;3.40;;;;;;;;;;5347728;26;20479;-69
2024/04/21 10:49:08;;;;;;;57.10;2.80;;;;;;;;;;5347955;26;21137;-68
2024/04/21 10:51:34;;;;;;;60.30;2.90;;;;;;;;;;5333703;26;20601;-68
2024/04/21 10:54:07;;;;;;;58.70;2.80;;;;;;;;;;5347893;26;20472;-68
2024/04/21 10:56:34;;;;;;;58.50;3.10;;;;;;;;;;5347477;26;20565;-68
2024/04/21 10:59:05;;;;;;;57.00;2.57;;;;;;;;;;5347781;26;20532;-68
2024/04/21 11:01:31;;;;;;;56.43;2.70;;;;;;;;;;5347758;26;20464;-68
2024/04/21 11:04:01;;;;;;;56.37;2.40;;;;;;;;;;5348391;26;21073;-68
2024/04/21 11:06:27;;;;;;;57.03;2.60;;;;;;;;;;5348773;26;20467;-68
2024/04/21 11:08:56;;;;;;;56.40;2.60;;;;;;;;;;5350008;26;20540;-69
2024/04/21 11:11:24;;;;;;;56.77;2.50;;;;;;;;;;5350551;26;20543;-69
2024/04/21 11:13:54;;;;;;;56.60;2.50;;;;;;;;;;5350273;26;20479;-68
2024/04/21 11:16:20;;;;;;;58.13;2.70;;;;;;;;;;5349361;26;20553;-68
2024/04/21 11:18:49;;;;;;;56.20;2.53;;;;;;;;;;5348860;26;20543;-69
2024/04/21 11:21:15;;;;;;;57.10;2.90;;;;;;;;;;5348310;26;20595;-69
2024/04/21 11:23:44;;;;;;;58.03;3.10;;;;;;;;;;5348031;26;20483;-68
2024/04/21 11:26:10;;;;;;;57.50;2.93;;;;;;;;;;5347645;26;21105;-69
2024/04/21 11:28:42;;;;;;;56.40;2.13;;;;;;;;;;5347819;26;20531;-69
2024/04/21 11:31:08;;;;;;;58.53;3.00;;;;;;;;;;5348636;26;20924;-68
2024/04/21 11:33:37;;;;;;;56.70;2.50;;;;;;;;;;5347656;26;20471;-68
2024/04/21 11:36:06;;;;;;;55.90;2.40;;;;;;;;;;5348334;26;20920;-68
2024/04/21 11:38:35;;;;;;;55.77;2.20;;;;;;;;;;5348848;26;20610;-68
2024/04/21 11:41:01;;;;;;;56.97;2.80;;;;;;;;;;5349036;26;20479;-69
2024/04/21 11:43:30;;;;;;;56.83;2.87;;;;;;;;;;5348996;26;20565;-68
2024/04/21 11:46:02;;;;;;;57.40;2.67;;;;;;;;;;5348347;26;20726;-69
2024/04/21 11:48:32;;;;;;;56.17;2.47;;;;;;;;;;5347784;26;20475;-67
2024/04/21 11:50:59;;;;;;;56.77;2.70;;;;;;;;;;5349226;26;20850;-70
2024/04/21 11:53:27;;;;;;;58.93;2.30;;;;;;;;;;5348747;26;20479;-68
2024/04/21 11:55:54;;;;;;;58.30;2.80;;;;;;;;;;5347615;26;20539;-68
2024/04/21 11:58:23;;;;;;;59.80;3.50;;;;;;;;;;5348503;26;21006;-69
2024/04/21 12:00:49;;;;;;;58.53;2.70;;;;;;;;;;5348770;26;20531;-69
2024/04/21 12:03:21;;;;;;;57.47;2.90;;;;;;;;;;5349270;26;20547;-69
2024/04/21 12:05:47;;;;;;;56.20;2.43;;;;;;;;;;5349180;26;20886;-69
2024/04/21 12:08:16;;;;;;;57.83;3.10;;;;;;;;;;5348775;26;20855;-68
2024/04/21 12:10:42;;;;;;;56.77;2.80;;;;;;;;;;5349756;26;20516;-69
2024/04/21 12:13:11;;;;;;;56.33;2.70;;;;;;;;;;5349632;26;20538;-69
2024/04/21 12:15:37;;;;;;;57.10;2.30;;;;;;;;;;5348560;26;20615;-68
2024/04/21 12:18:09;;;;;;;57.47;2.50;;;;;;;;;;5348010;26;20535;-69
2024/04/21 12:20:37;;;;;;;57.53;2.47;;;;;;;;;;5347099;26;20860;-69
2024/04/21 12:23:07;;;;;;;58.67;3.27;;;;;;;;;;5346447;26;20541;-69
2024/04/21 12:25:33;;;;;;;57.53;2.60;;;;;;;;;;5346766;26;20482;-69
2024/04/21 12:28:02;;;;;;;57.80;2.27;;;;;;;;;;5347013;26;20502;-69
2024/04/21 12:30:28;;;;;;;57.30;2.60;;;;;;;;;;5345904;26;20553;-69
2024/04/21 12:32:57;;;;;;;56.17;2.37;;;;;;;;;;5347153;26;20527;-69
2024/04/21 12:35:23;;;;;;;56.70;2.80;;;;;;;;;;5347006;26;20530;-69
2024/04/21 12:37:54;;;;;;;57.77;2.97;;;;;;;;;;5347181;26;20482;-69
2024/04/21 12:40:20;;;;;;;56.80;2.13;;;;;;;;;;5347255;26;20526;-69
2024/04/21 12:42:49;;;;;;;55.90;2.23;;;;;;;;;;5347182;26;20940;-69
2024/04/21 12:45:16;;;;;;;56.77;2.20;;;;;;;;;;5347172;26;20480;-68
2024/04/21 12:47:44;;;;;;;56.67;2.30;;;;;;;;;;5347340;26;20486;-69
2024/04/21 12:50:11;;;;;;;57.10;2.87;;;;;;;;;;5348020;26;20477;-69
2024/04/21 12:52:39;;;;;;;56.57;2.57;;;;;;;;;;5347573;26;20472;-69
2024/04/21 12:55:08;;;;;;;56.80;2.53;;;;;;;;;;5348456;26;20638;-70
2024/04/21 12:57:37;;;;;;;56.77;2.53;;;;;;;;;;5347854;26;20847;-69
2024/04/21 13:00:04;;;;;;;58.23;3.37;;;;;;;;;;5347588;26;21139;-69
2024/04/21 13:02:32;;;;;;;59.97;3.00;;;;;;;;;;5348036;26;20496;-69
2024/04/21 13:04:59;;;;;;;56.47;2.83;;;;;;;;;;5347592;26;20475;-69
2024/04/21 13:07:28;;;;;;;59.00;5.30;;;;;;;;;;5347093;26;20543;-69
2024/04/21 13:09:54;;;;;;;56.60;2.57;;;;;;;;;;5347399;26;20483;-68
2024/04/21 13:12:25;;;;;;;57.70;3.20;;;;;;;;;;5348132;26;20487;-69
2024/04/21 13:14:54;;;;;;;56.60;2.47;;;;;;;;;;5348229;26;20511;-69
2024/04/21 13:17:23;;;;;;;59.10;2.60;;;;;;;;;;5348198;26;20495;-69
2024/04/21 13:19:49;;;;;;;56.77;2.50;;;;;;;;;;5348370;26;20558;-69
2024/04/21 13:22:18;;;;;;;58.50;2.80;;;;;;;;;;5348589;26;20483;-68
2024/04/21 13:24:44;;;;;;;56.60;2.60;;;;;;;;;;5335806;26;20492;-68
2024/04/21 13:27:13;;;;;;;56.97;2.70;;;;;;;;;;5348571;26;20495;-68
2024/04/21 13:29:44;;;;;;;57.53;2.67;;;;;;;;;;5348190;26;20479;-69
2024/04/21 13:32:13;;;;;;;60.03;2.90;;;;;;;;;;5348708;26;20483;-67
2024/04/21 13:34:39;;;;;;;61.47;3.10;;;;;;;;;;5347955;26;20602;-68
2024/04/21 13:37:07;;;;;;;60.77;4.20;;;;;;;;;;5346701;26;20472;-68
2024/04/21 13:39:33;;;;;;;56.97;3.10;;;;;;;;;;5347589;26;20570;-68
2024/04/21 13:42:02;;;;;;;57.93;2.97;;;;;;;;;;5348899;26;20456;-68
2024/04/21 13:44:28;;;;;;;60.33;3.60;;;;;;;;;;5355135;26;20495;-68
2024/04/21 13:47:00;;;;;;;57.60;3.20;;;;;;;;;;5354692;26;20483;-68
2024/04/21 13:49:26;;;;;;;57.47;3.23;;;;;;;;;;5354610;26;20475;-68
2024/04/21 13:51:55;;;;;;;58.37;2.80;;;;;;;;;;5355629;26;20546;-68
2024/04/21 13:54:21;;;;;;;56.30;2.90;;;;;;;;;;5354442;26;20601;-68
2024/04/21 13:56:49;;;;;;;58.87;2.80;;;;;;;;;;5354179;26;20476;-68
2024/04/21 13:59:15;;;;;;;56.23;2.17;;;;;;;;;;5355007;26;20559;-69
2024/04/21 14:01:44;;;;;;;57.60;2.60;;;;;;;;;;5354568;26;20478;-69
2024/04/21 14:04:13;;;;;;;58.90;2.50;;;;;;;;;;5354461;26;20536;-69
2024/04/21 14:06:42;;;;;;;56.37;2.50;;;;;;;;;;5354203;26;20522;-69
2024/04/21 14:09:08;;;;;;;57.70;3.03;;;;;;;;;;5355522;26;21133;-69
2024/04/21 14:11:37;;;;;;;57.07;2.40;;;;;;;;;;5354835;26;20478;-69
2024/04/21 14:14:03;;;;;;;55.90;2.20;;;;;;;;;;5354757;26;20483;-69
2024/04/21 14:16:32;;;;;;;55.67;2.00;;;;;;;;;;5355339;26;20488;-69
2024/04/21 14:18:58;;;;;;;56.57;2.80;;;;;;;;;;5356259;26;20885;-69
2024/04/21 14:21:29;;;;;;;56.00;2.40;;;;;;;;;;5355524;26;20476;-69
2024/04/21 14:23:56;;;;;;;57.23;2.80;;;;;;;;;;5354947;26;20535;-69
2024/04/21 14:26:24;;;;;;;56.17;2.30;;;;;;;;;;5355385;26;20535;-69
2024/04/21 14:28:51;;;;;;;55.40;2.30;;;;;;;;;;5355279;26;20592;-69
2024/04/21 14:31:19;;;;;;;56.83;2.50;;;;;;;;;;5355111;26;20855;-69
2024/04/21 14:33:45;;;;;;;56.00;2.57;;;;;;;;;;5341496;26;20467;-69
2024/04/21 14:36:14;;;;;;;56.30;2.43;;;;;;;;;;5354819;26;20479;-69